createdAt,value
2018-08-23T03:34:53.078Z,0.00
2018-08-23T03:35:52.987Z,0.00
2018-08-23T03:37:46.323Z,0.00
2018-08-23T03:38:46.201Z,0.00
2018-08-23T03:39:46.136Z,0.00
2018-08-23T03:40:46.084Z,0.00
2018-08-23T03:41:46.024Z,0.00
2018-08-23T03:42:45.961Z,0.00
2018-08-23T03:43:45.900Z,0.00
2018-08-23T03:44:45.833Z,0.00
2018-08-23T03:45:45.774Z,0.00
2018-08-23T03:46:45.722Z,0.00
2018-08-23T03:47:45.652Z,0.00
2018-08-23T03:48:45.596Z,0.00
2018-08-23T03:49:45.535Z,0.00
2018-08-23T03:50:45.476Z,0.00
2018-08-23T03:51:45.415Z,0.00
2018-08-23T03:52:45.348Z,0.00
2018-08-23T03:53:45.313Z,5.63
2018-08-23T03:54:45.247Z,5.63
2018-08-23T03:55:45.174Z,5.63
2018-08-23T03:56:45.109Z,5.63
2018-08-23T03:57:45.044Z,5.63
2018-08-23T03:58:44.987Z,5.63
2018-08-23T03:59:44.926Z,5.63
2018-08-23T04:00:44.872Z,11.25
2018-08-23T04:01:44.812Z,11.25
2018-08-23T04:02:44.750Z,11.25
2018-08-23T04:03:44.692Z,11.25
2018-08-23T04:04:44.624Z,16.88
2018-08-23T04:05:44.575Z,16.88
2018-08-23T04:06:44.503Z,16.88
2018-08-23T04:07:44.446Z,16.88
2018-08-23T04:08:44.395Z,22.50
2018-08-23T04:09:44.343Z,22.50
2018-08-23T04:10:44.261Z,22.50
2018-08-23T04:11:44.202Z,22.50
2018-08-23T04:12:44.147Z,28.13
2018-08-23T04:13:44.087Z,28.13
2018-08-23T04:14:44.029Z,28.13
2018-08-23T04:15:43.975Z,33.75
2018-08-23T04:16:43.900Z,33.75
2018-08-23T04:17:43.850Z,33.75
2018-08-23T04:18:43.781Z,39.38
2018-08-23T04:19:43.730Z,39.38
2018-08-23T04:20:43.685Z,39.38
2018-08-23T04:21:43.613Z,45.00
2018-08-23T04:22:43.582Z,45.00
2018-08-23T04:23:43.487Z,50.63
2018-08-23T04:24:43.424Z,50.63
2018-08-23T04:25:43.382Z,50.63
2018-08-23T04:26:43.305Z,56.25
2018-08-23T04:27:43.245Z,56.25
2018-08-23T04:28:43.178Z,56.25
2018-08-23T04:29:43.120Z,61.88
2018-08-23T04:30:43.059Z,61.88
2018-08-23T04:31:43.001Z,67.50
2018-08-23T04:32:42.946Z,67.50
2018-08-23T04:33:42.884Z,73.13
2018-08-23T04:34:42.824Z,73.13
2018-08-23T04:35:42.764Z,73.13
2018-08-23T04:36:42.698Z,78.75
2018-08-23T04:37:42.636Z,78.75
2018-08-23T04:38:42.581Z,78.75
2018-08-23T04:39:42.519Z,84.38
2018-08-23T04:40:42.466Z,84.38
2018-08-23T04:41:42.423Z,90.00
2018-08-23T04:42:42.336Z,90.00
2018-08-23T04:43:42.277Z,95.63
2018-08-23T04:44:42.223Z,95.63
2018-08-23T04:45:42.162Z,101.25
2018-08-23T04:46:42.106Z,101.25
2018-08-23T04:47:42.046Z,106.88
2018-08-23T04:48:41.981Z,112.50
2018-08-23T04:49:41.920Z,118.13
2018-08-23T04:50:41.858Z,123.75
2018-08-23T04:51:41.885Z,123.75
2018-08-23T04:52:41.751Z,123.75
2018-08-23T04:53:41.686Z,123.75
2018-08-23T04:54:41.628Z,123.75
2018-08-23T04:55:41.566Z,123.75
2018-08-23T04:56:41.502Z,123.75
2018-08-23T04:57:41.450Z,123.75
2018-08-23T04:58:41.384Z,123.75
2018-08-23T04:59:41.327Z,129.38
2018-08-23T05:00:41.258Z,129.38
2018-08-23T05:01:41.196Z,135.00
2018-08-23T05:02:41.137Z,140.63
2018-08-23T05:03:41.075Z,140.63
2018-08-23T05:04:41.022Z,140.63
2018-08-23T05:05:40.966Z,140.63
2018-08-23T05:06:40.902Z,140.63
2018-08-23T05:07:40.844Z,146.25
2018-08-23T05:08:40.773Z,146.25
2018-08-23T05:09:40.722Z,151.88
2018-08-23T05:10:40.655Z,151.88
2018-08-23T05:11:40.596Z,157.50
2018-08-23T05:12:40.558Z,157.50
2018-08-23T05:13:40.479Z,157.50
2018-08-23T05:14:40.414Z,163.13
2018-08-23T05:15:40.359Z,168.75
2018-08-23T05:16:40.303Z,168.75
2018-08-23T05:17:40.243Z,168.75
2018-08-23T05:18:40.182Z,174.38
2018-08-23T05:19:40.120Z,174.38
2018-08-23T05:20:40.055Z,174.38
2018-08-23T05:21:39.994Z,174.38
2018-08-23T05:22:39.938Z,180.00
2018-08-23T05:23:39.876Z,180.00
2018-08-23T05:24:39.821Z,180.00
2018-08-23T05:25:39.763Z,180.00
2018-08-23T05:26:39.710Z,185.63
2018-08-23T05:27:39.648Z,191.25
2018-08-23T05:28:39.579Z,185.63
2018-08-23T05:29:39.549Z,196.88
2018-08-23T05:30:39.468Z,191.25
2018-08-23T05:31:39.401Z,196.88
2018-08-23T05:32:39.334Z,202.50
2018-08-23T05:33:39.276Z,202.50
2018-08-23T05:34:39.218Z,208.13
2018-08-23T05:35:39.159Z,213.75
2018-08-23T05:36:39.106Z,219.38
2018-08-23T05:37:39.044Z,219.38
2018-08-23T05:38:38.985Z,219.38
2018-08-23T05:39:38.925Z,219.38
2018-08-23T05:40:38.860Z,225.00
2018-08-23T05:41:38.799Z,225.00
2018-08-23T05:42:38.739Z,230.63
2018-08-23T05:43:38.680Z,230.63
2018-08-23T05:44:38.629Z,230.63
2018-08-23T05:45:38.588Z,230.63
2018-08-23T05:46:38.502Z,230.63
2018-08-23T05:47:38.498Z,236.25
2018-08-23T05:48:38.386Z,236.25
2018-08-23T05:49:38.327Z,236.25
2018-08-23T05:50:38.269Z,241.88
2018-08-23T05:51:38.212Z,241.88
2018-08-23T05:52:38.142Z,241.88
2018-08-23T05:53:38.082Z,241.88
2018-08-23T05:54:38.022Z,241.88
2018-08-23T05:55:37.963Z,241.88
2018-08-23T05:56:37.913Z,247.50
2018-08-23T05:57:37.849Z,241.88
2018-08-23T05:58:37.792Z,253.13
2018-08-23T05:59:37.730Z,258.75
2018-08-23T06:00:37.666Z,258.75
2018-08-23T06:01:37.609Z,264.38
2018-08-23T06:02:37.610Z,264.38
2018-08-23T06:03:37.492Z,264.38
2018-08-23T06:04:37.427Z,270.00
2018-08-23T06:05:37.367Z,270.00
2018-08-23T06:06:37.310Z,270.00
2018-08-23T06:07:37.254Z,275.63
2018-08-23T06:08:37.197Z,275.63
2018-08-23T06:09:37.135Z,281.25
2018-08-23T06:10:37.079Z,281.25
2018-08-23T06:11:37.019Z,286.88
2018-08-23T06:12:36.953Z,286.88
2018-08-23T06:13:36.893Z,292.50
2018-08-23T06:14:36.834Z,292.50
2018-08-23T06:15:36.776Z,298.13
2018-08-23T06:16:36.725Z,298.13
2018-08-23T06:17:36.666Z,298.13
2018-08-23T06:18:36.603Z,298.13
2018-08-23T06:19:36.539Z,298.13
2018-08-23T06:20:36.483Z,303.75
2018-08-23T06:21:36.429Z,303.75
2018-08-23T06:22:36.366Z,303.75
2018-08-23T06:23:36.310Z,303.75
2018-08-23T06:24:36.248Z,303.75
2018-08-23T06:25:36.183Z,309.38
2018-08-23T06:26:36.125Z,309.38
2018-08-23T06:27:36.066Z,309.38
2018-08-23T06:28:36.019Z,309.38
2018-08-23T06:29:35.954Z,309.38
2018-08-23T06:30:35.899Z,309.38
2018-08-23T06:31:35.839Z,309.38
2018-08-23T06:32:35.773Z,309.38
2018-08-23T06:33:35.885Z,315.00
2018-08-23T06:34:35.685Z,320.63
2018-08-23T06:35:35.620Z,315.00
2018-08-23T06:36:35.541Z,315.00
2018-08-23T06:37:35.524Z,315.00
2018-08-23T06:38:35.447Z,326.25
2018-08-23T06:39:35.360Z,320.63
2018-08-23T06:40:35.307Z,326.25
2018-08-23T06:41:35.250Z,326.25
2018-08-23T06:42:35.190Z,326.25
2018-08-23T06:43:35.131Z,331.88
2018-08-23T06:44:35.174Z,331.88
2018-08-23T06:45:35.013Z,331.88
2018-08-23T06:46:34.950Z,337.50
2018-08-23T06:47:34.896Z,337.50
2018-08-23T06:48:34.841Z,343.13
2018-08-23T06:49:34.792Z,343.13
2018-08-23T06:50:34.721Z,343.13
2018-08-23T06:51:34.659Z,343.13
2018-08-23T06:52:34.613Z,343.13
2018-08-23T06:53:34.548Z,343.13
2018-08-23T06:54:34.494Z,343.13
2018-08-23T06:55:34.441Z,348.75
2018-08-23T06:56:34.385Z,348.75
2018-08-23T06:57:34.311Z,348.75
2018-08-23T06:58:34.255Z,348.75
2018-08-23T06:59:34.194Z,354.38
2018-08-23T07:00:34.143Z,354.38
2018-08-23T07:01:34.085Z,354.38
2018-08-23T07:02:34.027Z,354.38
2018-08-23T07:03:33.969Z,360.00
2018-08-23T07:04:33.904Z,360.00
2018-08-23T07:05:33.902Z,360.00
2018-08-23T07:06:33.854Z,360.00
2018-08-23T07:07:33.745Z,360.00
2018-08-23T07:08:33.675Z,365.63
2018-08-23T07:09:33.612Z,365.63
2018-08-23T07:10:33.613Z,365.63
2018-08-23T07:11:33.498Z,365.63
2018-08-23T07:12:33.447Z,365.63
2018-08-23T07:13:33.388Z,371.25
2018-08-23T07:14:33.334Z,376.88
2018-08-23T07:15:33.276Z,382.50
2018-08-23T07:16:33.208Z,382.50
2018-08-23T07:17:33.221Z,382.50
2018-08-23T07:18:33.092Z,388.13
2018-08-23T07:19:33.038Z,393.75
2018-08-23T07:20:32.984Z,399.38
2018-08-23T07:21:32.926Z,405.00
2018-08-23T07:22:32.875Z,410.63
2018-08-23T07:23:32.815Z,410.63
2018-08-23T07:24:32.755Z,405.00
2018-08-23T07:25:32.700Z,405.00
2018-08-23T07:26:32.644Z,399.38
2018-08-23T07:27:32.586Z,393.75
2018-08-23T07:28:32.517Z,393.75
2018-08-23T07:29:32.461Z,393.75
2018-08-23T07:30:32.405Z,399.38
2018-08-23T07:31:32.349Z,399.38
2018-08-23T07:32:32.296Z,399.38
2018-08-23T07:33:32.258Z,405.00
2018-08-23T07:34:32.181Z,405.00
2018-08-23T07:35:32.134Z,410.63
2018-08-23T07:36:32.059Z,399.38
2018-08-23T07:37:32.005Z,399.38
2018-08-23T07:38:31.955Z,393.75
2018-08-23T07:39:31.900Z,399.38
2018-08-23T07:40:31.835Z,399.38
2018-08-23T07:41:31.776Z,399.38
2018-08-23T07:42:31.717Z,399.38
2018-08-23T07:43:31.667Z,393.75
2018-08-23T07:44:31.613Z,393.75
2018-08-23T07:45:31.553Z,393.75
2018-08-23T07:46:31.498Z,393.75
2018-08-23T07:47:31.442Z,393.75
2018-08-23T07:48:31.435Z,393.75
2018-08-23T07:49:31.321Z,393.75
2018-08-23T07:50:31.262Z,399.38
2018-08-23T07:51:31.219Z,393.75
2018-08-23T07:52:31.206Z,393.75
2018-08-23T07:53:31.308Z,393.75
2018-08-23T07:54:31.040Z,399.38
2018-08-23T07:55:30.981Z,399.38
2018-08-23T07:56:30.962Z,399.38
2018-08-23T07:57:30.903Z,399.38
2018-08-23T07:58:30.817Z,399.38
2018-08-23T07:59:30.757Z,399.38
2018-08-23T08:00:30.699Z,399.38
2018-08-23T08:01:30.640Z,399.38
2018-08-23T08:02:30.582Z,399.38
2018-08-23T08:03:30.529Z,399.38
2018-08-23T08:04:30.483Z,399.38
2018-08-23T08:05:30.428Z,399.38
2018-08-23T08:06:30.370Z,399.38
2018-08-23T08:07:30.313Z,399.38
2018-08-23T08:08:30.247Z,399.38
2018-08-23T08:09:30.198Z,399.38
2018-08-23T08:10:30.140Z,405.00
2018-08-23T08:11:30.083Z,405.00
2018-08-23T08:12:30.019Z,405.00
2018-08-23T08:13:29.977Z,405.00
2018-08-23T08:14:29.940Z,405.00
2018-08-23T08:15:29.851Z,405.00
2018-08-23T08:16:29.800Z,405.00
2018-08-23T08:17:29.748Z,405.00
2018-08-23T08:18:29.688Z,405.00
2018-08-23T08:19:29.631Z,405.00
2018-08-23T08:20:29.570Z,405.00
2018-08-23T08:21:29.548Z,405.00
2018-08-23T08:22:29.461Z,405.00
2018-08-23T08:23:29.403Z,405.00
2018-08-23T08:24:29.356Z,405.00
2018-08-23T08:25:29.306Z,405.00
2018-08-23T08:26:29.232Z,410.63
2018-08-23T08:27:29.174Z,410.63
2018-08-23T08:28:29.128Z,410.63
2018-08-23T08:29:29.072Z,410.63
2018-08-23T08:30:29.020Z,410.63
2018-08-23T08:31:28.973Z,410.63
2018-08-23T08:32:28.898Z,416.25
2018-08-23T08:33:28.842Z,410.63
2018-08-23T08:34:28.785Z,410.63
2018-08-23T08:35:28.731Z,416.25
2018-08-23T08:36:28.685Z,416.25
2018-08-23T08:37:28.628Z,416.25
2018-08-23T08:38:28.568Z,416.25
2018-08-23T08:39:28.514Z,416.25
2018-08-23T08:40:28.448Z,416.25
2018-08-23T08:41:28.391Z,421.88
2018-08-23T08:42:28.344Z,421.88
2018-08-23T08:43:28.291Z,421.88
2018-08-23T08:44:28.227Z,427.50
2018-08-23T08:45:28.170Z,421.88
2018-08-23T08:46:28.115Z,421.88
2018-08-23T08:47:28.064Z,421.88
2018-08-23T08:48:28.036Z,421.88
2018-08-23T08:49:27.961Z,427.50
2018-08-23T08:50:27.926Z,427.50
2018-08-23T08:51:27.844Z,427.50
2018-08-23T08:52:27.785Z,427.50
2018-08-23T08:53:27.737Z,427.50
2018-08-23T08:54:27.675Z,433.13
2018-08-23T08:55:27.617Z,433.13
2018-08-23T08:56:27.571Z,433.13
2018-08-23T08:57:27.512Z,438.75
2018-08-23T08:58:27.449Z,438.75
2018-08-23T08:59:27.395Z,444.38
2018-08-23T09:00:27.352Z,444.38
2018-08-23T09:01:27.291Z,438.75
2018-08-23T09:02:27.239Z,444.38
2018-08-23T09:03:27.184Z,450.00
2018-08-23T09:04:27.120Z,461.25
2018-08-23T09:05:27.066Z,472.50
2018-08-23T09:06:27.010Z,472.50
2018-08-23T09:07:26.953Z,466.88
2018-08-23T09:08:26.905Z,455.63
2018-08-23T09:09:26.850Z,472.50
2018-08-23T09:10:26.794Z,472.50
2018-08-23T09:11:26.743Z,466.88
2018-08-23T09:12:26.678Z,461.25
2018-08-23T09:13:26.622Z,455.63
2018-08-23T09:14:26.572Z,455.63
2018-08-23T09:15:26.520Z,455.63
2018-08-23T09:16:26.466Z,461.25
2018-08-23T09:17:26.403Z,455.63
2018-08-23T09:18:26.346Z,466.88
2018-08-23T09:19:26.298Z,478.13
2018-08-23T09:20:26.264Z,483.75
2018-08-23T09:21:26.197Z,478.13
2018-08-23T09:22:26.139Z,489.38
2018-08-23T09:23:26.102Z,472.50
2018-08-23T09:24:26.019Z,483.75
2018-08-23T09:25:25.963Z,478.13
2018-08-23T09:26:25.908Z,500.63
2018-08-23T09:27:25.854Z,495.00
2018-08-23T09:28:25.806Z,478.13
2018-08-23T09:29:25.755Z,472.50
2018-08-23T09:30:25.690Z,466.88
2018-08-23T09:31:25.631Z,466.88
2018-08-23T09:32:25.585Z,466.88
2018-08-23T09:33:25.530Z,466.88
2018-08-23T09:34:25.482Z,461.25
2018-08-23T09:35:25.422Z,461.25
2018-08-23T09:36:25.359Z,461.25
2018-08-23T09:37:25.305Z,455.63
2018-08-23T09:38:25.260Z,461.25
2018-08-23T09:39:25.197Z,461.25
2018-08-23T09:40:25.148Z,461.25
2018-08-23T09:41:25.096Z,461.25
2018-08-23T09:42:25.040Z,466.88
2018-08-23T09:43:24.985Z,466.88
2018-08-23T09:44:24.940Z,466.88
2018-08-23T09:45:24.872Z,472.50
2018-08-23T09:46:24.822Z,472.50
2018-08-23T09:47:24.779Z,472.50
2018-08-23T09:48:24.704Z,478.13
2018-08-23T09:49:24.654Z,483.75
2018-08-23T09:50:24.594Z,483.75
2018-08-23T09:51:24.542Z,483.75
2018-08-23T09:52:24.501Z,489.38
2018-08-23T09:53:24.442Z,489.38
2018-08-23T09:54:24.388Z,495.00
2018-08-23T09:55:24.332Z,500.63
2018-08-23T09:56:24.268Z,500.63
2018-08-23T09:57:24.219Z,500.63
2018-08-23T09:58:24.203Z,506.25
2018-08-23T09:59:24.117Z,506.25
2018-08-23T10:00:24.057Z,506.25
2018-08-23T10:01:24.003Z,506.25
2018-08-23T10:02:23.943Z,506.25
2018-08-23T10:03:23.890Z,500.63
2018-08-23T10:04:23.869Z,500.63
2018-08-23T10:05:23.791Z,500.63
2018-08-23T10:06:23.727Z,500.63
2018-08-23T10:07:23.674Z,500.63
2018-08-23T10:08:23.619Z,506.25
2018-08-23T10:09:23.559Z,506.25
2018-08-23T10:10:23.514Z,506.25
2018-08-23T10:11:23.512Z,511.88
2018-08-23T10:12:23.402Z,511.88
2018-08-23T10:13:23.358Z,511.88
2018-08-23T10:14:23.304Z,511.88
2018-08-23T10:15:23.259Z,511.88
2018-08-23T10:16:23.187Z,517.50
2018-08-23T10:17:23.132Z,523.13
2018-08-23T10:18:23.079Z,528.75
2018-08-23T10:19:23.029Z,528.75
2018-08-23T10:20:22.968Z,528.75
2018-08-23T10:21:22.918Z,528.75
2018-08-23T10:22:22.854Z,528.75
2018-08-23T10:23:22.801Z,540.00
2018-08-23T10:24:22.754Z,540.00
2018-08-23T10:25:22.707Z,540.00
2018-08-23T10:26:22.674Z,545.63
2018-08-23T10:27:22.590Z,545.63
2018-08-23T10:28:22.528Z,551.25
2018-08-23T10:29:22.480Z,556.88
2018-08-23T10:30:22.423Z,562.50
2018-08-23T10:31:22.373Z,562.50
2018-08-23T10:32:22.428Z,562.50
2018-08-23T10:33:22.284Z,568.13
2018-08-23T10:34:22.211Z,568.13
2018-08-23T10:35:22.152Z,568.13
2018-08-23T10:36:22.111Z,568.13
2018-08-23T10:37:22.050Z,568.13
2018-08-23T10:38:22.076Z,573.75
2018-08-23T10:39:21.945Z,573.75
2018-08-23T10:40:21.882Z,579.38
2018-08-23T10:41:21.826Z,585.00
2018-08-23T10:42:21.773Z,579.38
2018-08-23T10:43:21.725Z,568.13
2018-08-23T10:44:21.764Z,568.13
2018-08-23T10:45:21.620Z,556.88
2018-08-23T10:46:21.565Z,556.88
2018-08-23T10:47:21.512Z,562.50
2018-08-23T10:48:21.451Z,568.13
2018-08-23T10:49:21.395Z,568.13
2018-08-23T10:50:22.009Z,568.13
2018-08-23T10:51:21.327Z,573.75
2018-08-23T10:52:21.236Z,579.38
2018-08-23T10:53:21.187Z,590.63
2018-08-23T10:54:21.130Z,596.25
2018-08-23T10:55:21.076Z,601.88
2018-08-23T10:56:21.030Z,613.13
2018-08-23T10:57:20.974Z,624.38
2018-08-23T10:58:20.922Z,646.88
2018-08-23T10:59:20.868Z,669.38
2018-08-23T11:00:20.806Z,680.63
2018-08-23T11:01:20.751Z,703.13
2018-08-23T11:02:20.704Z,669.38
2018-08-23T11:03:20.647Z,759.38
2018-08-23T11:04:20.598Z,826.88
2018-08-23T11:05:20.548Z,832.50
2018-08-23T11:06:20.493Z,686.25
2018-08-23T11:07:20.438Z,663.75
2018-08-23T11:08:20.399Z,703.13
2018-08-23T11:09:20.339Z,748.13
2018-08-23T11:10:20.284Z,787.50
2018-08-23T11:11:27.870Z,838.13
2018-08-23T11:13:13.548Z,888.75
2018-08-23T11:14:13.462Z,922.50
2018-08-23T11:16:07.786Z,1018.13
2018-08-23T11:17:07.763Z,1006.88
2018-08-23T11:19:01.031Z,995.63
2018-08-23T11:20:00.948Z,843.75
2018-08-23T11:21:55.265Z,731.25
2018-08-23T11:22:55.186Z,770.63
2018-08-23T11:23:55.130Z,832.50
2018-08-23T11:24:55.075Z,905.63
2018-08-23T11:25:55.014Z,1586.25
2018-08-23T11:26:54.970Z,2801.25
2018-08-23T11:27:54.913Z,3161.25
2018-08-23T11:28:54.870Z,1136.25
2018-08-23T11:29:54.842Z,3301.88
2018-08-23T11:30:54.765Z,3560.63
2018-08-23T11:31:54.722Z,3060.00
2018-08-23T11:32:54.665Z,1254.38
2018-08-23T11:33:54.614Z,2058.75
2018-08-23T11:34:54.560Z,3830.63
2018-08-23T11:35:54.508Z,3718.13
2018-08-23T11:36:54.478Z,3926.25
2018-08-23T11:37:54.443Z,3830.63
2018-08-23T11:38:54.367Z,3718.13
2018-08-23T11:39:54.310Z,2598.75
2018-08-23T11:40:54.263Z,3279.38
2018-08-23T11:41:54.222Z,3498.75
2018-08-23T11:42:54.188Z,3571.88
2018-08-23T11:43:54.120Z,3656.25
2018-08-23T11:44:54.071Z,3746.25
2018-08-23T11:45:54.017Z,3616.88
2018-08-23T11:46:54.428Z,3678.75
2018-08-23T11:47:53.921Z,3560.63
2018-08-23T11:48:53.939Z,3723.75
2018-08-23T11:49:53.846Z,3723.75
2018-08-23T11:50:53.786Z,3538.13
2018-08-23T11:51:53.752Z,3510.00
2018-08-23T11:52:53.698Z,3470.63
2018-08-23T11:53:53.663Z,3358.13
2018-08-23T11:54:53.595Z,3217.50
2018-08-23T11:55:53.577Z,1147.50
2018-08-23T11:56:53.528Z,2064.38
2018-08-23T11:57:53.495Z,3240.00
2018-08-23T11:58:53.421Z,1051.88
2018-08-23T11:59:53.368Z,1665.00
2018-08-23T12:00:53.324Z,2795.63
2018-08-23T12:01:53.283Z,2598.75
2018-08-23T12:02:53.238Z,3993.75
2018-08-23T12:03:53.203Z,2891.25
2018-08-23T12:04:53.147Z,4438.13
2018-08-23T12:05:53.129Z,4252.50
2018-08-23T12:06:53.062Z,3999.38
2018-08-23T12:07:53.013Z,1327.50
2018-08-23T12:08:52.960Z,3391.88
2018-08-23T12:09:52.975Z,3695.63
2018-08-23T12:10:52.874Z,3909.38
2018-08-23T12:11:52.827Z,3656.25
2018-08-23T12:12:52.778Z,3616.88
2018-08-23T12:13:52.741Z,3588.75
2018-08-23T12:14:52.697Z,3757.50
2018-08-23T12:15:52.652Z,1400.63
2018-08-23T12:16:52.633Z,967.50
2018-08-23T12:17:52.553Z,1035.00
2018-08-23T12:18:52.512Z,978.75
2018-08-23T12:19:52.464Z,900.00
2018-08-23T12:20:52.423Z,883.13
2018-08-23T12:21:52.381Z,1282.50
2018-08-23T12:22:52.337Z,821.25
2018-08-23T12:23:52.289Z,815.63
2018-08-23T12:24:52.243Z,826.88
2018-08-23T12:25:52.290Z,956.25
2018-08-23T12:26:52.141Z,1496.25
2018-08-23T12:27:52.104Z,1164.38
2018-08-23T12:28:52.056Z,1181.25
2018-08-23T12:29:52.001Z,1108.13
2018-08-23T12:30:51.948Z,1046.25
2018-08-23T12:31:51.926Z,1710.00
2018-08-23T12:32:51.877Z,3346.88
2018-08-23T12:33:51.811Z,3453.75
2018-08-23T12:34:51.810Z,967.50
2018-08-23T12:35:51.716Z,950.63
2018-08-23T12:36:51.671Z,1074.38
2018-08-23T12:37:51.634Z,3656.25
2018-08-23T12:38:51.564Z,3886.88
2018-08-23T12:39:51.518Z,3988.13
2018-08-23T12:40:51.489Z,3802.50
2018-08-23T12:41:51.427Z,3971.25
2018-08-23T12:42:51.380Z,3830.63
2018-08-23T12:43:51.382Z,2671.88
2018-08-23T12:44:51.279Z,3712.50
2018-08-23T12:45:51.245Z,3616.88
2018-08-23T12:46:51.193Z,3650.63
2018-08-23T12:47:51.146Z,3825.00
2018-08-23T12:48:51.100Z,4089.38
2018-08-23T12:49:51.107Z,4218.75
2018-08-23T12:50:51.008Z,4258.13
2018-08-23T12:51:50.957Z,810.00
2018-08-23T12:52:50.913Z,759.38
2018-08-23T12:53:50.881Z,776.25
2018-08-23T12:54:50.830Z,3442.50
2018-08-23T12:55:50.788Z,4038.75
2018-08-23T12:56:50.742Z,4055.63
2018-08-23T12:57:50.693Z,1181.25
2018-08-23T12:58:50.655Z,3706.88
2018-08-23T12:59:50.657Z,3718.13
2018-08-23T13:00:50.562Z,1203.75
2018-08-23T13:01:50.568Z,1035.00
2018-08-23T13:02:50.540Z,3667.50
2018-08-23T13:03:50.461Z,2272.50
2018-08-23T13:04:50.381Z,3273.75
2018-08-23T13:05:50.336Z,1800.00
2018-08-23T13:06:50.296Z,2655.00
2018-08-23T13:07:50.246Z,984.38
2018-08-23T13:08:50.209Z,1186.88
2018-08-23T13:09:50.152Z,4145.63
2018-08-23T13:10:50.116Z,4348.13
2018-08-23T13:11:50.061Z,4140.00
2018-08-23T13:12:50.012Z,1136.25
2018-08-23T13:13:49.980Z,4055.63
2018-08-23T13:14:49.939Z,4027.50
2018-08-23T13:15:49.882Z,3178.13
2018-08-23T13:16:49.833Z,1181.25
2018-08-23T13:17:49.793Z,3943.13
2018-08-23T13:18:49.747Z,3650.63
2018-08-23T13:19:49.712Z,3886.88
2018-08-23T13:20:49.657Z,2446.88
2018-08-23T13:21:49.638Z,995.63
2018-08-23T13:22:49.562Z,990.00
2018-08-23T13:23:49.518Z,1012.50
2018-08-23T13:24:49.472Z,2221.88
2018-08-23T13:25:49.435Z,4314.38
2018-08-23T13:26:49.387Z,4410.00
2018-08-23T13:27:49.343Z,4376.25
2018-08-23T13:28:49.298Z,3960.00
2018-08-23T13:29:49.263Z,4134.38
2018-08-23T13:30:49.227Z,4196.25
2018-08-23T13:31:49.165Z,3639.38
2018-08-23T13:32:49.123Z,4162.50
2018-08-23T13:33:49.069Z,4100.63
2018-08-23T13:34:49.024Z,3971.25
2018-08-23T13:35:48.981Z,3886.88
2018-08-23T13:36:49.079Z,3971.25
2018-08-23T13:37:48.901Z,4016.25
2018-08-23T13:38:48.898Z,4010.63
2018-08-23T13:39:48.818Z,3993.75
2018-08-23T13:40:48.791Z,3701.25
2018-08-23T13:41:48.758Z,3999.38
2018-08-23T13:42:48.681Z,4117.50
2018-08-23T13:43:48.639Z,4021.88
2018-08-23T13:44:48.594Z,4078.13
2018-08-23T13:45:48.564Z,3960.00
2018-08-23T13:46:48.527Z,3931.88
2018-08-23T13:47:48.478Z,3819.38
2018-08-23T13:48:48.448Z,1321.88
2018-08-23T13:49:48.387Z,1861.88
2018-08-23T13:50:48.350Z,714.38
2018-08-23T13:51:48.306Z,1541.25
2018-08-23T13:52:48.295Z,1389.38
2018-08-23T13:53:48.228Z,1080.00
2018-08-23T13:54:48.180Z,3915.00
2018-08-23T13:55:48.125Z,4100.63
2018-08-23T13:56:48.080Z,4252.50
2018-08-23T13:57:48.049Z,4353.75
2018-08-23T13:58:48.024Z,4387.50
2018-08-23T13:59:47.954Z,4325.63
2018-08-23T14:00:47.932Z,3886.88
2018-08-23T14:01:47.872Z,4027.50
2018-08-23T14:02:47.828Z,4201.88
2018-08-23T14:03:47.782Z,4224.38
2018-08-23T14:04:47.734Z,4123.13
2018-08-23T14:05:47.685Z,4038.75
2018-08-23T14:06:47.646Z,3960.00
2018-08-23T14:07:47.635Z,3926.25
2018-08-23T14:08:47.561Z,3830.63
2018-08-23T14:09:47.517Z,3853.13
2018-08-23T14:10:47.480Z,3841.88
2018-08-23T14:11:47.439Z,3858.75
2018-08-23T14:12:47.446Z,3915.00
2018-08-23T14:13:47.342Z,3982.50
2018-08-23T14:14:47.312Z,4044.38
2018-08-23T14:15:47.257Z,3937.50
2018-08-23T14:16:47.212Z,3729.38
2018-08-23T14:17:47.179Z,1023.75
2018-08-23T14:18:47.137Z,3015.00
2018-08-23T14:19:47.090Z,3605.63
2018-08-23T14:20:47.047Z,3785.63
2018-08-23T14:21:47.031Z,3746.25
2018-08-23T14:22:46.972Z,3622.50
2018-08-23T14:23:46.931Z,1338.75
2018-08-23T14:24:46.884Z,3380.63
2018-08-23T14:25:46.831Z,3279.38
2018-08-23T14:26:46.788Z,2857.50
2018-08-23T14:27:46.745Z,731.25
2018-08-23T14:28:46.718Z,748.13
2018-08-23T14:29:46.667Z,2919.38
2018-08-23T14:30:46.623Z,810.00
2018-08-23T14:31:46.583Z,720.00
2018-08-23T14:32:46.546Z,697.50
2018-08-23T14:33:46.489Z,714.38
2018-08-23T14:34:46.457Z,1006.88
2018-08-23T14:35:46.407Z,2621.25
2018-08-23T14:36:46.361Z,3301.88
2018-08-23T14:37:46.317Z,3054.38
2018-08-23T14:38:46.297Z,3639.38
2018-08-23T14:39:46.222Z,3611.25
2018-08-23T14:40:46.174Z,3391.88
2018-08-23T14:41:46.143Z,877.50
2018-08-23T14:42:46.092Z,2295.00
2018-08-23T14:43:46.049Z,3414.38
2018-08-23T14:44:46.005Z,3493.13
2018-08-23T14:45:45.956Z,3465.00
2018-08-23T14:46:45.921Z,3403.13
2018-08-23T14:47:45.862Z,3369.38
2018-08-23T14:48:45.817Z,3301.88
2018-08-23T14:49:45.784Z,3228.75
2018-08-23T14:50:45.740Z,3251.25
2018-08-23T14:51:45.686Z,3245.63
2018-08-23T14:52:45.640Z,3234.38
2018-08-23T14:53:45.609Z,3206.25
2018-08-23T14:54:45.561Z,3133.13
2018-08-23T14:55:45.515Z,3048.75
2018-08-23T14:56:45.473Z,3031.88
2018-08-23T14:57:45.426Z,3015.00
2018-08-23T14:58:45.377Z,3009.38
2018-08-23T14:59:45.339Z,2728.13
2018-08-23T15:00:45.292Z,1951.88
2018-08-23T15:01:45.252Z,1136.25
2018-08-23T15:02:45.209Z,866.25
2018-08-23T15:03:45.165Z,821.25
2018-08-23T15:04:45.119Z,781.88
2018-08-23T15:05:45.073Z,753.75
2018-08-23T15:06:45.029Z,725.63
2018-08-23T15:07:45.080Z,703.13
2018-08-23T15:08:44.969Z,691.88
2018-08-23T15:09:44.907Z,663.75
2018-08-23T15:10:44.849Z,646.88
2018-08-23T15:11:44.804Z,635.63
2018-08-23T15:12:44.759Z,624.38
2018-08-23T15:13:44.715Z,618.75
2018-08-23T15:14:44.669Z,624.38
2018-08-23T15:15:44.623Z,607.50
2018-08-23T15:16:44.577Z,601.88
2018-08-23T15:17:44.528Z,601.88
2018-08-23T15:18:44.475Z,596.25
2018-08-23T15:19:44.428Z,596.25
2018-08-23T15:20:44.423Z,590.63
2018-08-23T15:21:44.338Z,585.00
2018-08-23T15:22:44.293Z,579.38
2018-08-23T15:23:44.238Z,573.75
2018-08-23T15:24:44.186Z,568.13
2018-08-23T15:25:44.148Z,568.13
2018-08-23T15:26:44.292Z,562.50
2018-08-23T15:27:44.066Z,562.50
2018-08-23T15:28:44.037Z,562.50
2018-08-23T15:29:43.943Z,556.88
2018-08-23T15:30:43.895Z,551.25
2018-08-23T15:31:43.850Z,551.25
2018-08-23T15:32:43.794Z,545.63
2018-08-23T15:33:43.751Z,540.00
2018-08-23T15:34:43.707Z,534.38
2018-08-23T15:35:43.656Z,528.75
2018-08-23T15:36:43.604Z,523.13
2018-08-23T15:37:43.549Z,523.13
2018-08-23T15:38:43.498Z,517.50
2018-08-23T15:39:43.470Z,511.88
2018-08-23T15:40:43.411Z,511.88
2018-08-23T15:41:43.361Z,511.88
2018-08-23T15:42:43.300Z,506.25
2018-08-23T15:43:43.253Z,506.25
2018-08-23T15:44:43.200Z,511.88
2018-08-23T15:45:43.163Z,511.88
2018-08-23T15:46:43.912Z,506.25
2018-08-23T15:47:43.071Z,511.88
2018-08-23T15:48:43.004Z,511.88
2018-08-23T15:49:42.948Z,523.13
2018-08-23T15:50:42.898Z,528.75
2018-08-23T15:51:42.849Z,523.13
2018-08-23T15:52:42.799Z,511.88
2018-08-23T15:53:42.758Z,517.50
2018-08-23T15:54:42.704Z,528.75
2018-08-23T15:55:42.681Z,556.88
2018-08-23T15:56:42.596Z,573.75
2018-08-23T15:57:42.554Z,585.00
2018-08-23T15:58:42.504Z,579.38
2018-08-23T15:59:42.458Z,556.88
2018-08-23T16:00:42.401Z,511.88
2018-08-23T16:01:42.344Z,506.25
2018-08-23T16:02:42.303Z,517.50
2018-08-23T16:03:42.243Z,517.50